sensor_id;sensor_type;location;lat;lon;timestamp;P1;durP1;ratioP1;P2;durP2;ratioP2
7941;SDS011;4016;50.758;7.150;2023-04-05T00:01:55;4.10;;;3.57;;
7941;SDS011;4016;50.758;7.150;2023-04-05T00:06:55;4.40;;;3.50;;
7941;SDS011;4016;50.758;7.150;2023-04-05T00:11:57;4.63;;;3.47;;
7941;SDS011;4016;50.758;7.150;2023-04-05T00:16:57;4.37;;;3.17;;
7941;SDS011;4016;50.758;7.150;2023-04-05T00:21:58;5.37;;;3.67;;
7941;SDS011;4016;50.758;7.150;2023-04-05T00:26:59;3.80;;;3.20;;
7941;SDS011;4016;50.758;7.150;2023-04-05T00:32:00;5.73;;;2.97;;
7941;SDS011;4016;50.758;7.150;2023-04-05T00:37:00;3.60;;;3.27;;
7941;SDS011;4016;50.758;7.150;2023-04-05T00:42:03;4.87;;;3.60;;
7941;SDS011;4016;50.758;7.150;2023-04-05T00:47:05;3.57;;;2.90;;
7941;SDS011;4016;50.758;7.150;2023-04-05T00:52:06;4.60;;;3.00;;
7941;SDS011;4016;50.758;7.150;2023-04-05T00:57:07;4.57;;;3.67;;
7941;SDS011;4016;50.758;7.150;2023-04-05T01:02:12;4.07;;;3.00;;
7941;SDS011;4016;50.758;7.150;2023-04-05T01:12:24;4.00;;;3.40;;
7941;SDS011;4016;50.758;7.150;2023-04-05T01:17:28;4.30;;;3.13;;
7941;SDS011;4016;50.758;7.150;2023-04-05T01:22:59;3.27;;;2.97;;
7941;SDS011;4016;50.758;7.150;2023-04-05T01:39:19;4.03;;;3.50;;
7941;SDS011;4016;50.758;7.150;2023-04-05T01:44:20;6.87;;;4.30;;
7941;SDS011;4016;50.758;7.150;2023-04-05T01:49:20;5.13;;;3.77;;
7941;SDS011;4016;50.758;7.150;2023-04-05T01:54:22;6.87;;;3.73;;
7941;SDS011;4016;50.758;7.150;2023-04-05T01:59:22;4.10;;;3.70;;
7941;SDS011;4016;50.758;7.150;2023-04-05T02:04:23;3.70;;;3.30;;
7941;SDS011;4016;50.758;7.150;2023-04-05T02:09:23;4.13;;;3.67;;
7941;SDS011;4016;50.758;7.150;2023-04-05T02:14:23;5.30;;;3.63;;
7941;SDS011;4016;50.758;7.150;2023-04-05T02:19:24;3.97;;;3.50;;
7941;SDS011;4016;50.758;7.150;2023-04-05T02:24:25;4.80;;;3.83;;
7941;SDS011;4016;50.758;7.150;2023-04-05T02:29:25;4.93;;;3.47;;
7941;SDS011;4016;50.758;7.150;2023-04-05T02:34:26;4.73;;;3.57;;
7941;SDS011;4016;50.758;7.150;2023-04-05T02:39:27;3.63;;;3.33;;
7941;SDS011;4016;50.758;7.150;2023-04-05T02:44:28;5.90;;;3.87;;
7941;SDS011;4016;50.758;7.150;2023-04-05T02:49:28;4.67;;;3.53;;
7941;SDS011;4016;50.758;7.150;2023-04-05T02:54:29;6.00;;;4.00;;
7941;SDS011;4016;50.758;7.150;2023-04-05T02:59:29;6.27;;;3.87;;
7941;SDS011;4016;50.758;7.150;2023-04-05T03:04:29;3.67;;;3.33;;
7941;SDS011;4016;50.758;7.150;2023-04-05T03:09:33;4.20;;;3.80;;
7941;SDS011;4016;50.758;7.150;2023-04-05T03:14:33;4.50;;;3.57;;
7941;SDS011;4016;50.758;7.150;2023-04-05T03:19:34;5.83;;;3.70;;
7941;SDS011;4016;50.758;7.150;2023-04-05T03:24:34;5.17;;;3.83;;
7941;SDS011;4016;50.758;7.150;2023-04-05T03:29:35;4.43;;;3.83;;
7941;SDS011;4016;50.758;7.150;2023-04-05T03:34:35;5.90;;;3.60;;
7941;SDS011;4016;50.758;7.150;2023-04-05T03:39:36;5.13;;;3.97;;
7941;SDS011;4016;50.758;7.150;2023-04-05T03:44:36;3.43;;;3.13;;
7941;SDS011;4016;50.758;7.150;2023-04-05T03:49:36;4.47;;;4.03;;
7941;SDS011;4016;50.758;7.150;2023-04-05T03:54:37;3.97;;;3.03;;
7941;SDS011;4016;50.758;7.150;2023-04-05T03:59:39;2.93;;;2.73;;
7941;SDS011;4016;50.758;7.150;2023-04-05T04:04:40;4.30;;;3.47;;
7941;SDS011;4016;50.758;7.150;2023-04-05T04:09:40;4.70;;;3.30;;
7941;SDS011;4016;50.758;7.150;2023-04-05T04:14:40;3.50;;;3.20;;
7941;SDS011;4016;50.758;7.150;2023-04-05T04:19:41;4.40;;;3.10;;
7941;SDS011;4016;50.758;7.150;2023-04-05T04:24:41;7.43;;;3.30;;
7941;SDS011;4016;50.758;7.150;2023-04-05T04:29:45;4.30;;;3.77;;
7941;SDS011;4016;50.758;7.150;2023-04-05T04:34:46;5.23;;;4.50;;
7941;SDS011;4016;50.758;7.150;2023-04-05T04:39:47;3.87;;;3.30;;
7941;SDS011;4016;50.758;7.150;2023-04-05T04:44:48;4.30;;;3.47;;
7941;SDS011;4016;50.758;7.150;2023-04-05T04:49:48;4.47;;;3.43;;
7941;SDS011;4016;50.758;7.150;2023-04-05T04:54:49;4.07;;;3.67;;
7941;SDS011;4016;50.758;7.150;2023-04-05T04:59:51;4.87;;;3.37;;
7941;SDS011;4016;50.758;7.150;2023-04-05T05:04:51;4.00;;;3.60;;
7941;SDS011;4016;50.758;7.150;2023-04-05T05:09:52;4.30;;;3.90;;
7941;SDS011;4016;50.758;7.150;2023-04-05T05:14:53;3.27;;;3.03;;
7941;SDS011;4016;50.758;7.150;2023-04-05T05:19:53;3.80;;;3.33;;
7941;SDS011;4016;50.758;7.150;2023-04-05T05:24:54;5.47;;;4.07;;
7941;SDS011;4016;50.758;7.150;2023-04-05T05:29:54;3.60;;;3.30;;
7941;SDS011;4016;50.758;7.150;2023-04-05T05:34:55;5.30;;;3.73;;
7941;SDS011;4016;50.758;7.150;2023-04-05T05:39:56;6.20;;;3.83;;
7941;SDS011;4016;50.758;7.150;2023-04-05T05:44:57;4.97;;;4.40;;
7941;SDS011;4016;50.758;7.150;2023-04-05T05:50:00;4.93;;;4.13;;
7941;SDS011;4016;50.758;7.150;2023-04-05T05:55:01;5.87;;;3.33;;
7941;SDS011;4016;50.758;7.150;2023-04-05T06:00:02;5.10;;;4.47;;
7941;SDS011;4016;50.758;7.150;2023-04-05T06:05:08;4.13;;;3.73;;
7941;SDS011;4016;50.758;7.150;2023-04-05T06:10:08;4.13;;;3.73;;
7941;SDS011;4016;50.758;7.150;2023-04-05T06:15:09;5.37;;;4.33;;
7941;SDS011;4016;50.758;7.150;2023-04-05T06:20:10;4.90;;;4.40;;
7941;SDS011;4016;50.758;7.150;2023-04-05T06:25:10;4.90;;;4.20;;
7941;SDS011;4016;50.758;7.150;2023-04-05T06:30:12;5.27;;;4.37;;
7941;SDS011;4016;50.758;7.150;2023-04-05T06:35:12;4.67;;;4.17;;
7941;SDS011;4016;50.758;7.150;2023-04-05T06:40:13;6.37;;;4.33;;
7941;SDS011;4016;50.758;7.150;2023-04-05T06:45:14;5.97;;;4.43;;
7941;SDS011;4016;50.758;7.150;2023-04-05T06:50:15;5.63;;;4.27;;
7941;SDS011;4016;50.758;7.150;2023-04-05T06:55:15;6.47;;;4.80;;
7941;SDS011;4016;50.758;7.150;2023-04-05T07:00:16;5.43;;;4.53;;
7941;SDS011;4016;50.758;7.150;2023-04-05T07:05:17;4.63;;;4.20;;
7941;SDS011;4016;50.758;7.150;2023-04-05T07:10:17;6.37;;;4.43;;
7941;SDS011;4016;50.758;7.150;2023-04-05T07:15:18;6.03;;;4.23;;
7941;SDS011;4016;50.758;7.150;2023-04-05T07:20:18;4.57;;;4.17;;
7941;SDS011;4016;50.758;7.150;2023-04-05T07:25:19;4.90;;;4.40;;
7941;SDS011;4016;50.758;7.150;2023-04-05T07:30:19;5.53;;;4.17;;
7941;SDS011;4016;50.758;7.150;2023-04-05T07:35:19;6.17;;;4.57;;
7941;SDS011;4016;50.758;7.150;2023-04-05T07:40:20;4.87;;;4.23;;
7941;SDS011;4016;50.758;7.150;2023-04-05T07:45:20;4.93;;;4.30;;
7941;SDS011;4016;50.758;7.150;2023-04-05T07:50:21;5.97;;;4.17;;
7941;SDS011;4016;50.758;7.150;2023-04-05T07:55:21;6.07;;;4.53;;
7941;SDS011;4016;50.758;7.150;2023-04-05T08:00:21;4.97;;;4.47;;
7941;SDS011;4016;50.758;7.150;2023-04-05T08:05:22;5.07;;;4.40;;
7941;SDS011;4016;50.758;7.150;2023-04-05T08:10:25;5.97;;;4.33;;
7941;SDS011;4016;50.758;7.150;2023-04-05T08:15:26;6.20;;;4.40;;
7941;SDS011;4016;50.758;7.150;2023-04-05T08:20:26;5.57;;;4.30;;
7941;SDS011;4016;50.758;7.150;2023-04-05T08:25:27;5.37;;;4.00;;
7941;SDS011;4016;50.758;7.150;2023-04-05T08:30:27;5.30;;;3.93;;
7941;SDS011;4016;50.758;7.150;2023-04-05T08:35:27;5.10;;;4.30;;
7941;SDS011;4016;50.758;7.150;2023-04-05T08:40:32;5.90;;;4.33;;
7941;SDS011;4016;50.758;7.150;2023-04-05T08:45:51;6.13;;;3.90;;
7941;SDS011;4016;50.758;7.150;2023-04-05T08:50:52;6.10;;;4.67;;
7941;SDS011;4016;50.758;7.150;2023-04-05T08:55:55;5.43;;;4.53;;
7941;SDS011;4016;50.758;7.150;2023-04-05T09:00:56;5.27;;;4.00;;
7941;SDS011;4016;50.758;7.150;2023-04-05T09:05:58;5.03;;;4.17;;
7941;SDS011;4016;50.758;7.150;2023-04-05T09:10:59;4.70;;;4.20;;
7941;SDS011;4016;50.758;7.150;2023-04-05T09:15:59;5.77;;;3.40;;
7941;SDS011;4016;50.758;7.150;2023-04-05T09:21:01;5.07;;;3.90;;
7941;SDS011;4016;50.758;7.150;2023-04-05T09:26:21;4.57;;;4.10;;
7941;SDS011;4016;50.758;7.150;2023-04-05T09:31:28;3.90;;;3.60;;
7941;SDS011;4016;50.758;7.150;2023-04-05T09:36:33;4.70;;;4.20;;
7941;SDS011;4016;50.758;7.150;2023-04-05T09:41:34;5.10;;;4.00;;
7941;SDS011;4016;50.758;7.150;2023-04-05T09:46:35;4.30;;;3.77;;
7941;SDS011;4016;50.758;7.150;2023-04-05T09:51:37;5.50;;;3.90;;
7941;SDS011;4016;50.758;7.150;2023-04-05T09:56:39;4.93;;;3.93;;
7941;SDS011;4016;50.758;7.150;2023-04-05T10:01:43;5.70;;;4.00;;
7941;SDS011;4016;50.758;7.150;2023-04-05T10:06:43;5.20;;;3.80;;
7941;SDS011;4016;50.758;7.150;2023-04-05T10:11:44;6.10;;;4.27;;
7941;SDS011;4016;50.758;7.150;2023-04-05T10:16:52;5.37;;;4.30;;
7941;SDS011;4016;50.758;7.150;2023-04-05T10:21:59;5.33;;;3.80;;
7941;SDS011;4016;50.758;7.150;2023-04-05T10:27:06;5.93;;;4.37;;
7941;SDS011;4016;50.758;7.150;2023-04-05T10:32:25;4.97;;;4.00;;
7941;SDS011;4016;50.758;7.150;2023-04-05T10:42:47;4.90;;;3.80;;
7941;SDS011;4016;50.758;7.150;2023-04-05T10:47:49;4.53;;;3.70;;
7941;SDS011;4016;50.758;7.150;2023-04-05T10:52:56;4.90;;;4.10;;
7941;SDS011;4016;50.758;7.150;2023-04-05T10:57:59;5.17;;;4.00;;
7941;SDS011;4016;50.758;7.150;2023-04-05T11:03:00;5.17;;;4.13;;
7941;SDS011;4016;50.758;7.150;2023-04-05T11:08:04;4.50;;;3.93;;
7941;SDS011;4016;50.758;7.150;2023-04-05T11:13:06;5.17;;;4.37;;
7941;SDS011;4016;50.758;7.150;2023-04-05T11:23:11;8.03;;;4.50;;
7941;SDS011;4016;50.758;7.150;2023-04-05T11:28:23;5.47;;;3.87;;
7941;SDS011;4016;50.758;7.150;2023-04-05T11:33:39;4.63;;;4.20;;
7941;SDS011;4016;50.758;7.150;2023-04-05T11:39:21;5.27;;;3.80;;
7941;SDS011;4016;50.758;7.150;2023-04-05T11:44:16;5.37;;;4.30;;
7941;SDS011;4016;50.758;7.150;2023-04-05T11:49:18;4.40;;;4.00;;
7941;SDS011;4016;50.758;7.150;2023-04-05T11:54:29;9.07;;;4.53;;
7941;SDS011;4016;50.758;7.150;2023-04-05T11:59:34;5.63;;;4.33;;
7941;SDS011;4016;50.758;7.150;2023-04-05T12:04:35;7.90;;;4.10;;
7941;SDS011;4016;50.758;7.150;2023-04-05T12:09:54;5.13;;;4.47;;
7941;SDS011;4016;50.758;7.150;2023-04-05T12:15:02;4.23;;;3.87;;
7941;SDS011;4016;50.758;7.150;2023-04-05T12:20:04;5.50;;;4.27;;
7941;SDS011;4016;50.758;7.150;2023-04-05T12:25:05;5.60;;;4.40;;
7941;SDS011;4016;50.758;7.150;2023-04-05T12:30:24;5.17;;;4.63;;
7941;SDS011;4016;50.758;7.150;2023-04-05T12:35:27;5.03;;;4.53;;
7941;SDS011;4016;50.758;7.150;2023-04-05T12:40:34;5.43;;;4.57;;
7941;SDS011;4016;50.758;7.150;2023-04-05T12:45:35;6.20;;;4.70;;
7941;SDS011;4016;50.758;7.150;2023-04-05T12:50:42;5.43;;;4.13;;
7941;SDS011;4016;50.758;7.150;2023-04-05T12:55:47;4.80;;;4.30;;
7941;SDS011;4016;50.758;7.150;2023-04-05T13:00:49;5.77;;;4.13;;
7941;SDS011;4016;50.758;7.150;2023-04-05T13:05:50;4.63;;;4.00;;
7941;SDS011;4016;50.758;7.150;2023-04-05T13:10:50;5.03;;;4.53;;
7941;SDS011;4016;50.758;7.150;2023-04-05T13:15:51;6.93;;;4.10;;
7941;SDS011;4016;50.758;7.150;2023-04-05T13:20:52;4.97;;;4.30;;
7941;SDS011;4016;50.758;7.150;2023-04-05T13:25:52;5.43;;;4.43;;
7941;SDS011;4016;50.758;7.150;2023-04-05T13:30:52;5.73;;;4.90;;
7941;SDS011;4016;50.758;7.150;2023-04-05T13:35:53;5.10;;;4.60;;
7941;SDS011;4016;50.758;7.150;2023-04-05T13:40:53;5.50;;;5.00;;
7941;SDS011;4016;50.758;7.150;2023-04-05T13:45:54;5.43;;;4.90;;
7941;SDS011;4016;50.758;7.150;2023-04-05T13:50:54;5.97;;;4.60;;
7941;SDS011;4016;50.758;7.150;2023-04-05T13:55:55;6.07;;;4.60;;
7941;SDS011;4016;50.758;7.150;2023-04-05T14:00:55;7.40;;;4.70;;
7941;SDS011;4016;50.758;7.150;2023-04-05T14:05:56;5.23;;;4.23;;
7941;SDS011;4016;50.758;7.150;2023-04-05T14:10:56;6.67;;;4.80;;
7941;SDS011;4016;50.758;7.150;2023-04-05T14:15:57;5.67;;;5.17;;
7941;SDS011;4016;50.758;7.150;2023-04-05T14:20:57;5.47;;;4.83;;
7941;SDS011;4016;50.758;7.150;2023-04-05T14:25:58;7.20;;;4.70;;
7941;SDS011;4016;50.758;7.150;2023-04-05T14:30:58;5.47;;;4.93;;
7941;SDS011;4016;50.758;7.150;2023-04-05T14:35:59;9.43;;;5.10;;
7941;SDS011;4016;50.758;7.150;2023-04-05T14:41:00;5.55;;;4.82;;
7941;SDS011;4016;50.758;7.150;2023-04-05T14:46:00;5.40;;;4.83;;
7941;SDS011;4016;50.758;7.150;2023-04-05T14:51:00;5.57;;;5.00;;
7941;SDS011;4016;50.758;7.150;2023-04-05T14:56:01;5.77;;;5.23;;
7941;SDS011;4016;50.758;7.150;2023-04-05T15:01:01;6.00;;;5.07;;
7941;SDS011;4016;50.758;7.150;2023-04-05T15:06:03;6.03;;;4.63;;
7941;SDS011;4016;50.758;7.150;2023-04-05T15:11:04;6.33;;;5.43;;
7941;SDS011;4016;50.758;7.150;2023-04-05T15:16:04;5.73;;;5.17;;
7941;SDS011;4016;50.758;7.150;2023-04-05T15:21:05;5.33;;;4.80;;
7941;SDS011;4016;50.758;7.150;2023-04-05T15:26:06;8.63;;;5.30;;
7941;SDS011;4016;50.758;7.150;2023-04-05T15:31:06;5.87;;;5.27;;
7941;SDS011;4016;50.758;7.150;2023-04-05T15:36:07;5.67;;;5.17;;
7941;SDS011;4016;50.758;7.150;2023-04-05T15:41:07;7.10;;;5.37;;
7941;SDS011;4016;50.758;7.150;2023-04-05T15:46:08;7.37;;;6.17;;
7941;SDS011;4016;50.758;7.150;2023-04-05T15:51:08;7.33;;;5.80;;
7941;SDS011;4016;50.758;7.150;2023-04-05T15:56:10;6.97;;;5.10;;
7941;SDS011;4016;50.758;7.150;2023-04-05T16:01:11;6.67;;;5.27;;
7941;SDS011;4016;50.758;7.150;2023-04-05T16:06:12;6.20;;;5.27;;
7941;SDS011;4016;50.758;7.150;2023-04-05T16:11:12;6.20;;;5.60;;
7941;SDS011;4016;50.758;7.150;2023-04-05T16:16:13;6.50;;;5.43;;
7941;SDS011;4016;50.758;7.150;2023-04-05T16:21:13;8.97;;;5.83;;
7941;SDS011;4016;50.758;7.150;2023-04-05T16:26:14;5.97;;;5.33;;
7941;SDS011;4016;50.758;7.150;2023-04-05T16:31:15;5.90;;;4.90;;
7941;SDS011;4016;50.758;7.150;2023-04-05T16:36:15;5.90;;;5.10;;
7941;SDS011;4016;50.758;7.150;2023-04-05T16:41:16;6.53;;;5.57;;
7941;SDS011;4016;50.758;7.150;2023-04-05T16:46:16;6.07;;;5.47;;
7941;SDS011;4016;50.758;7.150;2023-04-05T16:51:17;8.10;;;5.67;;
7941;SDS011;4016;50.758;7.150;2023-04-05T16:56:17;6.70;;;5.00;;
7941;SDS011;4016;50.758;7.150;2023-04-05T17:01:18;6.30;;;5.40;;
7941;SDS011;4016;50.758;7.150;2023-04-05T17:06:18;7.17;;;5.43;;
7941;SDS011;4016;50.758;7.150;2023-04-05T17:11:19;7.67;;;6.07;;
7941;SDS011;4016;50.758;7.150;2023-04-05T17:16:20;6.30;;;5.60;;
7941;SDS011;4016;50.758;7.150;2023-04-05T17:21:20;7.17;;;5.30;;
7941;SDS011;4016;50.758;7.150;2023-04-05T17:26:21;5.90;;;5.30;;
7941;SDS011;4016;50.758;7.150;2023-04-05T17:31:22;8.27;;;5.80;;
7941;SDS011;4016;50.758;7.150;2023-04-05T17:36:23;8.30;;;5.57;;
7941;SDS011;4016;50.758;7.150;2023-04-05T17:41:25;5.10;;;4.57;;
7941;SDS011;4016;50.758;7.150;2023-04-05T17:46:25;5.47;;;4.70;;
7941;SDS011;4016;50.758;7.150;2023-04-05T17:51:26;6.13;;;5.20;;
7941;SDS011;4016;50.758;7.150;2023-04-05T17:56:27;6.03;;;5.20;;
7941;SDS011;4016;50.758;7.150;2023-04-05T18:01:27;5.73;;;4.77;;
7941;SDS011;4016;50.758;7.150;2023-04-05T18:06:28;6.23;;;4.97;;
7941;SDS011;4016;50.758;7.150;2023-04-05T18:11:28;5.97;;;5.30;;
7941;SDS011;4016;50.758;7.150;2023-04-05T18:16:28;8.30;;;5.10;;
7941;SDS011;4016;50.758;7.150;2023-04-05T18:21:31;7.00;;;4.80;;
7941;SDS011;4016;50.758;7.150;2023-04-05T18:26:32;9.13;;;5.43;;
7941;SDS011;4016;50.758;7.150;2023-04-05T18:31:32;6.27;;;5.40;;
7941;SDS011;4016;50.758;7.150;2023-04-05T18:36:33;8.30;;;5.50;;
7941;SDS011;4016;50.758;7.150;2023-04-05T18:41:34;5.80;;;5.17;;
7941;SDS011;4016;50.758;7.150;2023-04-05T18:46:35;6.07;;;4.80;;
7941;SDS011;4016;50.758;7.150;2023-04-05T18:51:36;5.23;;;4.63;;
7941;SDS011;4016;50.758;7.150;2023-04-05T18:56:36;6.53;;;5.43;;
7941;SDS011;4016;50.758;7.150;2023-04-05T19:01:36;5.37;;;4.87;;
7941;SDS011;4016;50.758;7.150;2023-04-05T19:06:37;7.07;;;5.00;;
7941;SDS011;4016;50.758;7.150;2023-04-05T19:11:37;7.07;;;5.13;;
7941;SDS011;4016;50.758;7.150;2023-04-05T19:16:37;6.67;;;5.10;;
7941;SDS011;4016;50.758;7.150;2023-04-05T19:21:38;5.73;;;5.13;;
7941;SDS011;4016;50.758;7.150;2023-04-05T19:26:39;6.00;;;4.80;;
7941;SDS011;4016;50.758;7.150;2023-04-05T19:31:40;8.70;;;5.60;;
7941;SDS011;4016;50.758;7.150;2023-04-05T19:36:41;5.63;;;4.73;;
7941;SDS011;4016;50.758;7.150;2023-04-05T19:41:42;5.40;;;4.53;;
7941;SDS011;4016;50.758;7.150;2023-04-05T19:46:42;7.27;;;5.20;;
7941;SDS011;4016;50.758;7.150;2023-04-05T19:51:43;6.53;;;5.30;;
7941;SDS011;4016;50.758;7.150;2023-04-05T19:56:43;6.63;;;5.17;;
7941;SDS011;4016;50.758;7.150;2023-04-05T20:01:44;7.40;;;5.70;;
7941;SDS011;4016;50.758;7.150;2023-04-05T20:06:47;6.53;;;5.63;;
7941;SDS011;4016;50.758;7.150;2023-04-05T20:11:55;9.73;;;5.23;;
7941;SDS011;4016;50.758;7.150;2023-04-05T20:16:57;6.07;;;5.03;;
7941;SDS011;4016;50.758;7.150;2023-04-05T20:22:01;8.00;;;5.30;;
7941;SDS011;4016;50.758;7.150;2023-04-05T20:27:04;5.70;;;4.80;;
7941;SDS011;4016;50.758;7.150;2023-04-05T20:32:05;5.77;;;5.20;;
7941;SDS011;4016;50.758;7.150;2023-04-05T20:37:06;7.67;;;4.73;;
7941;SDS011;4016;50.758;7.150;2023-04-05T20:42:07;5.67;;;4.97;;
7941;SDS011;4016;50.758;7.150;2023-04-05T20:47:08;6.97;;;4.97;;
7941;SDS011;4016;50.758;7.150;2023-04-05T20:52:09;5.70;;;4.87;;
7941;SDS011;4016;50.758;7.150;2023-04-05T20:57:10;7.03;;;5.03;;
7941;SDS011;4016;50.758;7.150;2023-04-05T21:02:10;7.27;;;5.60;;
7941;SDS011;4016;50.758;7.150;2023-04-05T21:07:11;6.77;;;4.60;;
7941;SDS011;4016;50.758;7.150;2023-04-05T21:12:11;6.60;;;4.40;;
7941;SDS011;4016;50.758;7.150;2023-04-05T21:17:12;6.17;;;4.90;;
7941;SDS011;4016;50.758;7.150;2023-04-05T21:22:12;7.17;;;4.70;;
7941;SDS011;4016;50.758;7.150;2023-04-05T21:27:12;6.50;;;5.20;;
7941;SDS011;4016;50.758;7.150;2023-04-05T21:32:13;5.83;;;4.80;;
7941;SDS011;4016;50.758;7.150;2023-04-05T21:37:13;6.97;;;5.60;;
7941;SDS011;4016;50.758;7.150;2023-04-05T21:42:13;7.73;;;5.37;;
7941;SDS011;4016;50.758;7.150;2023-04-05T21:47:14;8.30;;;5.30;;
7941;SDS011;4016;50.758;7.150;2023-04-05T21:52:16;7.37;;;5.20;;
7941;SDS011;4016;50.758;7.150;2023-04-05T21:57:16;7.33;;;5.27;;
7941;SDS011;4016;50.758;7.150;2023-04-05T22:02:17;10.47;;;6.40;;
7941;SDS011;4016;50.758;7.150;2023-04-05T22:07:17;8.67;;;6.20;;
7941;SDS011;4016;50.758;7.150;2023-04-05T22:12:18;11.03;;;7.10;;
7941;SDS011;4016;50.758;7.150;2023-04-05T22:17:21;9.63;;;6.77;;
7941;SDS011;4016;50.758;7.150;2023-04-05T22:22:21;8.40;;;6.37;;
7941;SDS011;4016;50.758;7.150;2023-04-05T22:27:21;9.20;;;6.27;;
7941;SDS011;4016;50.758;7.150;2023-04-05T22:32:22;7.90;;;6.40;;
7941;SDS011;4016;50.758;7.150;2023-04-05T22:37:22;7.77;;;5.57;;
7941;SDS011;4016;50.758;7.150;2023-04-05T22:42:23;7.97;;;6.30;;
7941;SDS011;4016;50.758;7.150;2023-04-05T22:47:23;7.53;;;5.83;;
7941;SDS011;4016;50.758;7.150;2023-04-05T22:52:24;8.57;;;5.20;;
7941;SDS011;4016;50.758;7.150;2023-04-05T22:57:24;8.37;;;5.50;;
7941;SDS011;4016;50.758;7.150;2023-04-05T23:02:24;6.53;;;5.30;;
7941;SDS011;4016;50.758;7.150;2023-04-05T23:07:26;11.37;;;5.83;;
7941;SDS011;4016;50.758;7.150;2023-04-05T23:12:28;7.50;;;5.90;;
7941;SDS011;4016;50.758;7.150;2023-04-05T23:17:28;8.90;;;5.27;;
7941;SDS011;4016;50.758;7.150;2023-04-05T23:22:29;6.23;;;4.70;;
7941;SDS011;4016;50.758;7.150;2023-04-05T23:27:29;8.53;;;5.53;;
7941;SDS011;4016;50.758;7.150;2023-04-05T23:32:30;6.40;;;5.17;;
7941;SDS011;4016;50.758;7.150;2023-04-05T23:37:30;6.77;;;5.57;;
7941;SDS011;4016;50.758;7.150;2023-04-05T23:42:31;5.77;;;5.17;;
7941;SDS011;4016;50.758;7.150;2023-04-05T23:47:31;6.10;;;5.27;;
7941;SDS011;4016;50.758;7.150;2023-04-05T23:52:32;6.03;;;4.93;;
7941;SDS011;4016;50.758;7.150;2023-04-05T23:57:32;6.67;;;5.00;;
